Time;durP1;ratioP1;P1;durP2;ratioP2;P2;SDS_P1;SDS_P2;PMS_P1;PMS_P2;Temp;Humidity;BMP_temperature;BMP_pressure;BME280_temperature;BME280_humidity;BME280_pressure;Samples;Min_cycle;Max_cycle;Signal;HPM_P1;HPM_P2
2021/12/16 00:09:46;;;;;;;22.07;11.40;;;;;;;3.97;100.00;101243.19;5078126;28;20186;-73
2021/12/16 00:29:31;;;;;;;17.43;10.47;;;;;;;3.71;100.00;101245.84;5072547;28;20214;-74
2021/12/16 00:32:05;;;;;;;19.67;10.17;;;;;;;3.61;100.00;101253.78;5084415;28;20281;-74
2021/12/16 00:34:33;;;;;;;18.70;10.07;;;;;;;3.69;100.00;101251.69;5091705;28;20255;-72
2021/12/16 00:37:02;;;;;;;22.43;10.47;;;;;;;3.82;100.00;101257.66;5082121;28;20214;-74
2021/12/16 00:39:32;;;;;;;19.53;10.27;;;;;;;3.91;100.00;101263.34;5078638;28;20198;-73
2021/12/16 00:42:04;;;;;;;17.83;10.00;;;;;;;3.68;100.00;101262.72;5079541;28;20669;-74
2021/12/16 00:47:31;;;;;;;18.67;9.97;;;;;;;3.65;100.00;101244.59;5066948;28;20268;-75
2021/12/16 00:50:06;;;;;;;23.70;11.37;;;;;;;3.53;100.00;101238.75;5072734;28;20262;-74
2021/12/16 00:55:30;;;;;;;22.30;11.00;;;;;;;3.65;100.00;101257.41;5090642;28;20204;-73
2021/12/16 00:57:57;;;;;;;20.87;10.47;;;;;;;3.49;100.00;101253.03;5085323;28;20227;-73
2021/12/16 01:00:27;;;;;;;22.60;10.67;;;;;;;3.43;100.00;101253.53;5074356;28;20246;-73
2021/12/16 01:03:06;;;;;;;22.17;10.93;;;;;;;3.36;100.00;101248.81;5081745;28;20195;-74
2021/12/16 01:06:00;;;;;;;23.37;12.27;;;;;;;3.47;100.00;101252.94;5074941;28;20190;-73
2021/12/16 01:33:58;;;;;;;22.10;10.60;;;;;;;2.79;100.00;101179.44;5090843;28;20250;-74
2021/12/16 01:50:26;;;;;;;16.80;9.33;;;;;;;2.86;100.00;101214.00;5075708;28;20577;-73
2021/12/16 01:55:44;;;;;;;23.53;11.00;;;;;;;2.89;100.00;101204.00;5074889;28;20220;-73
2021/12/16 01:58:17;;;;;;;22.43;12.50;;;;;;;2.60;100.00;101176.53;5084459;28;20190;-75
2021/12/16 02:00:58;;;;;;;21.33;10.83;;;;;;;2.88;100.00;101209.88;5089954;28;20245;-73
2021/12/16 02:03:38;;;;;;;23.07;11.53;;;;;;;2.88;100.00;101204.75;5074869;28;20630;-74
2021/12/16 02:06:12;;;;;;;23.77;12.07;;;;;;;2.94;100.00;101215.38;5074232;28;20673;-73
2021/12/16 02:08:40;;;;;;;21.47;11.33;;;;;;;2.83;100.00;101214.72;5074261;28;20202;-74
2021/12/16 02:11:25;;;;;;;22.23;11.17;;;;;;;2.88;100.00;101222.69;5083026;28;20669;-73
2021/12/16 02:33:32;;;;;;;22.43;11.47;;;;;;;2.93;100.00;101209.38;5091544;28;20256;-74
2021/12/16 02:36:02;;;;;;;21.83;10.87;;;;;;;2.92;100.00;101215.31;5093292;28;20306;-74
2021/12/16 02:38:34;;;;;;;22.13;9.97;;;;;;;2.92;100.00;101215.31;5082710;28;20195;-74
2021/12/16 02:41:01;;;;;;;21.53;9.90;;;;;;;2.65;100.00;101205.84;5079127;28;20577;-74
2021/12/16 02:43:55;;;;;;;19.13;11.10;;;;;;;2.70;100.00;101203.59;5092549;28;20198;-74
2021/12/16 02:49:06;;;;;;;25.50;12.77;;;;;;;2.81;100.00;101210.28;5088888;28;20209;-74
2021/12/16 02:51:33;;;;;;;23.33;11.47;;;;;;;2.67;100.00;101208.53;5083092;28;20201;-74
2021/12/16 02:54:05;;;;;;;20.23;9.80;;;;;;;2.77;100.00;101198.06;5091370;28;20263;-74
2021/12/16 02:56:33;;;;;;;22.10;11.13;;;;;;;2.94;100.00;101206.03;5092249;28;20293;-74
2021/12/16 02:59:00;;;;;;;14.30;8.57;;;;;;;2.83;100.00;101204.47;5073467;28;20187;-72
2021/12/16 03:01:34;;;;;;;21.03;11.03;;;;;;;2.81;100.00;101195.81;5082111;28;20242;-74
2021/12/16 03:04:04;;;;;;;24.23;11.43;;;;;;;2.92;100.00;101199.94;5092990;28;20243;-74
2021/12/16 03:06:32;;;;;;;23.57;10.70;;;;;;;3.06;100.00;101198.25;5086571;28;20607;-73
2021/12/16 03:09:04;;;;;;;19.93;11.80;;;;;;;2.84;100.00;101201.13;5073112;28;20195;-75
2021/12/16 03:11:41;;;;;;;23.07;11.30;;;;;;;2.95;100.00;101202.69;5082133;28;20573;-73
2021/12/16 03:14:32;;;;;;;23.47;11.27;;;;;;;2.98;100.00;101197.75;5091571;28;20570;-73
2021/12/16 03:17:17;;;;;;;20.30;10.57;;;;;;;3.16;100.00;101198.03;5093134;28;20768;-75
2021/12/16 03:19:57;;;;;;;24.43;12.37;;;;;;;2.96;100.00;101203.59;5088635;28;20222;-74
2021/12/16 03:22:43;;;;;;;20.97;10.10;;;;;;;2.74;100.00;101205.56;5088445;28;20285;-73
2021/12/16 03:25:21;;;;;;;16.73;9.10;;;;;;;2.81;100.00;101198.38;5088084;28;20218;-73
2021/12/16 03:28:21;;;;;;;18.67;8.77;;;;;;;2.71;100.00;101205.38;5075091;28;20205;-74
2021/12/16 03:31:05;;;;;;;20.80;11.30;;;;;;;2.59;100.00;101205.47;5090379;28;20190;-73
2021/12/16 03:36:29;;;;;;;19.60;10.93;;;;;;;2.87;100.00;101202.97;5061600;28;20275;-73
2021/12/16 03:39:02;;;;;;;20.97;10.17;;;;;;;2.69;100.00;101196.69;5077734;28;20192;-74
2021/12/16 03:41:32;;;;;;;18.33;10.13;;;;;;;2.64;100.00;101200.66;5084083;28;20191;-73
2021/12/16 03:44:00;;;;;;;23.93;11.40;;;;;;;2.53;100.00;101201.63;5076243;28;20296;-73
2021/12/16 03:46:29;;;;;;;22.20;11.60;;;;;;;2.49;100.00;101198.88;5092730;28;20190;-74
2021/12/16 03:49:01;;;;;;;23.20;10.73;;;;;;;2.53;100.00;101205.09;5074639;28;20205;-75
2021/12/16 03:51:32;;;;;;;18.27;9.60;;;;;;;2.55;100.00;101202.59;5090709;28;20688;-73
2021/12/16 03:54:02;;;;;;;23.40;10.43;;;;;;;2.54;100.00;101193.13;5090652;28;20239;-74
2021/12/16 03:56:31;;;;;;;12.23;5.83;;;;;;;2.42;100.00;101191.59;5088297;28;20186;-74
2021/12/16 03:58:58;;;;;;;25.83;12.43;;;;;;;2.25;100.00;101202.38;5090636;28;20753;-73
2021/12/16 04:01:28;;;;;;;21.23;10.50;;;;;;;2.33;100.00;101198.66;5083216;28;20263;-73
2021/12/16 04:03:55;;;;;;;20.50;10.70;;;;;;;2.33;100.00;101197.75;5083089;28;20194;-73
2021/12/16 04:06:24;;;;;;;43.63;17.20;;;;;;;2.22;100.00;101194.50;5092359;28;20660;-74
2021/12/16 04:08:52;;;;;;;19.87;9.80;;;;;;;2.11;100.00;101190.34;5091938;28;20205;-73
2021/12/16 04:11:23;;;;;;;22.63;11.43;;;;;;;2.06;100.00;101188.28;5084371;28;20669;-74
2021/12/16 04:13:56;;;;;;;24.20;11.17;;;;;;;2.01;100.00;101190.53;5073022;28;20218;-73
2021/12/16 04:16:25;;;;;;;26.43;9.60;;;;;;;1.93;100.00;101189.13;5071909;28;20430;-75
2021/12/16 04:18:52;;;;;;;29.88;16.05;;;;;;;1.89;100.00;101194.84;5071054;28;20871;-73
2021/12/16 04:21:21;;;;;;;30.77;15.27;;;;;;;1.68;100.00;101190.81;5078901;28;20734;-71
2021/12/16 04:23:49;;;;;;;21.73;11.27;;;;;;;1.77;100.00;101188.91;5072332;28;20244;-71
2021/12/16 04:26:17;;;;;;;34.87;13.60;;;;;;;1.76;100.00;101174.31;5070959;28;20331;-71
2021/12/16 04:28:44;;;;;;;32.70;14.03;;;;;;;1.84;100.00;101199.63;5071910;28;20195;-71
2021/12/16 04:31:12;;;;;;;29.23;12.63;;;;;;;1.68;100.00;101199.38;5077390;28;20198;-73
2021/12/16 04:33:39;;;;;;;32.73;14.03;;;;;;;1.49;100.00;101192.16;5089812;28;20672;-72
2021/12/16 04:36:08;;;;;;;16.60;8.97;;;;;;;1.65;100.00;101167.59;5091563;28;20237;-73
2021/12/16 04:38:36;;;;;;;28.00;13.80;;;;;;;1.62;100.00;101177.63;5091474;28;20190;-72
2021/12/16 04:41:05;;;;;;;25.70;12.10;;;;;;;1.52;100.00;101181.22;5085709;28;20195;-72
2021/12/16 04:43:39;;;;;;;18.50;7.20;;;;;;;1.54;100.00;101174.53;5075511;28;20190;-74
2021/12/16 04:46:07;;;;;;;21.77;10.40;;;;;;;1.45;100.00;101169.72;5085061;28;20229;-72
2021/12/16 04:48:37;;;;;;;20.17;9.57;;;;;;;1.42;100.00;101173.72;5077383;28;20199;-75
2021/12/16 04:51:05;;;;;;;16.57;8.27;;;;;;;1.30;100.00;101170.31;5074041;28;20742;-74
2021/12/16 04:53:31;;;;;;;24.60;10.63;;;;;;;1.33;100.00;101183.31;5086490;28;20582;-75
2021/12/16 04:55:58;;;;;;;20.70;10.13;;;;;;;1.35;100.00;101172.44;5088981;28;20679;-73
2021/12/16 04:58:26;;;;;;;16.90;10.00;;;;;;;1.34;100.00;101182.53;5080661;28;20244;-73
2021/12/16 05:00:53;;;;;;;17.27;8.17;;;;;;;1.21;100.00;101183.38;5081653;28;21914;-75
2021/12/16 05:03:20;;;;;;;23.77;11.60;;;;;;;1.18;100.00;101188.22;5077224;28;20186;-73
2021/12/16 05:05:48;;;;;;;34.37;15.10;;;;;;;0.94;100.00;101143.13;5075402;28;20219;-74
2021/12/16 05:08:15;;;;;;;22.90;11.77;;;;;;;1.13;100.00;101181.94;5089397;28;20194;-73
2021/12/16 05:10:43;;;;;;;27.53;11.70;;;;;;;1.15;100.00;101152.25;5092079;28;20197;-72
2021/12/16 05:13:10;;;;;;;24.13;10.83;;;;;;;1.21;100.00;101182.47;5089798;28;20190;-71
2021/12/16 05:15:40;;;;;;;25.10;11.63;;;;;;;0.85;100.00;101174.00;5091409;28;20186;-72
2021/12/16 05:18:09;;;;;;;20.13;10.20;;;;;;;1.02;100.00;101182.84;5075264;28;20218;-72
2021/12/16 05:20:39;;;;;;;26.43;13.37;;;;;;;1.12;100.00;101184.38;5092245;28;20225;-71
2021/12/16 05:26:10;;;;;;;22.00;10.80;;;;;;;1.04;100.00;101182.94;5090396;28;20689;-72
2021/12/16 05:28:38;;;;;;;21.23;10.27;;;;;;;1.02;100.00;101184.50;5080595;28;20203;-72
2021/12/16 05:31:05;;;;;;;20.27;10.87;;;;;;;1.11;100.00;101191.13;5072195;28;20198;-73
2021/12/16 05:33:32;;;;;;;17.20;8.77;;;;;;;0.94;100.00;101189.06;5088914;28;20187;-75
2021/12/16 05:36:00;;;;;;;24.47;10.33;;;;;;;1.09;100.00;101192.72;5090759;28;20230;-73
2021/12/16 05:38:30;;;;;;;30.13;13.43;;;;;;;1.06;100.00;101189.94;5079641;28;20708;-74
2021/12/16 05:40:57;;;;;;;24.63;12.60;;;;;;;0.94;100.00;101176.31;5071381;28;20194;-73
2021/12/16 05:43:25;;;;;;;33.33;15.03;;;;;;;0.85;100.00;101165.47;5072375;28;20768;-72
2021/12/16 05:45:54;;;;;;;19.40;10.00;;;;;;;0.95;100.00;101173.88;5071018;28;20227;-72
2021/12/16 05:48:24;;;;;;;25.87;9.53;;;;;;;0.81;100.00;101158.38;5084766;28;20624;-74
2021/12/16 05:50:55;;;;;;;25.33;12.20;;;;;;;0.97;100.00;101177.41;5091136;28;20625;-72
2021/12/16 05:53:22;;;;;;;37.73;16.13;;;;;;;0.76;100.00;101175.00;5090446;28;20183;-73
2021/12/16 05:55:52;;;;;;;21.37;11.70;;;;;;;0.97;100.00;101171.41;5073541;28;20684;-74
2021/12/16 05:58:20;;;;;;;24.93;12.23;;;;;;;0.93;100.00;101185.63;5085317;28;21971;-72
2021/12/16 06:00:50;;;;;;;27.27;12.10;;;;;;;0.96;100.00;101185.84;5087159;28;20285;-74
2021/12/16 06:03:18;;;;;;;24.03;12.50;;;;;;;0.90;100.00;101185.41;5083540;28;20198;-74
2021/12/16 06:05:45;;;;;;;30.53;14.60;;;;;;;0.90;100.00;101192.19;5074611;28;20288;-72
2021/12/16 06:08:12;;;;;;;21.17;11.17;;;;;;;0.86;100.00;101197.84;5074316;28;20202;-72
2021/12/16 06:13:30;;;;;;;26.67;12.33;;;;;;;0.74;100.00;101197.88;5074670;28;20324;-75
2021/12/16 06:22:22;;;;;;;27.57;12.83;;;;;;;0.82;100.00;101186.53;5082869;28;20189;-72
2021/12/16 06:27:06;;;;;;;35.43;15.87;;;;;;;1.07;100.00;101176.38;5093013;28;20241;-72
2021/12/16 06:29:34;;;;;;;45.67;17.53;;;;;;;0.92;100.00;101168.56;5094280;28;20201;-72
2021/12/16 06:32:01;;;;;;;33.07;15.37;;;;;;;1.05;100.00;101177.06;5094947;28;20546;-70
2021/12/16 06:34:29;;;;;;;38.17;16.63;;;;;;;1.11;100.00;101172.38;5088788;28;20286;-72
2021/12/16 06:36:56;;;;;;;23.50;10.30;;;;;;;0.94;100.00;101177.19;5090037;28;20307;-72
2021/12/16 06:39:23;;;;;;;44.53;20.50;;;;;;;1.13;100.00;101169.16;5074094;28;20190;-73
2021/12/16 06:41:50;;;;;;;29.57;13.93;;;;;;;1.04;100.00;101183.81;5073670;28;20191;-71
2021/12/16 06:44:21;;;;;;;17.90;10.67;;;;;;;1.23;100.00;101179.22;5073643;28;20783;-73
2021/12/16 06:46:52;;;;;;;30.03;13.83;;;;;;;1.28;100.00;101194.88;5073630;28;20227;-74
2021/12/16 06:49:21;;;;;;;37.13;15.03;;;;;;;1.34;100.00;101196.19;5073607;28;20195;-74
2021/12/16 06:51:52;;;;;;;28.43;12.93;;;;;;;1.16;100.00;101202.56;5073656;28;20206;-73
2021/12/16 06:54:26;;;;;;;23.17;11.43;;;;;;;1.35;100.00;101203.09;5072933;28;20199;-73
2021/12/16 06:57:02;;;;;;;27.80;13.73;;;;;;;1.32;100.00;101210.50;5073538;28;20207;-72
2021/12/16 06:59:32;;;;;;;35.50;14.50;;;;;;;1.35;100.00;101203.09;5073712;28;20203;-74
2021/12/16 07:02:10;;;;;;;29.73;12.87;;;;;;;1.47;100.00;101219.25;5074070;28;20256;-74
2021/12/16 07:04:38;;;;;;;31.47;15.43;;;;;;;1.58;100.00;101226.75;5073446;28;20260;-73
2021/12/16 07:07:07;;;;;;;43.30;19.13;;;;;;;1.54;100.00;101235.88;5073493;28;20611;-75
2021/12/16 07:09:35;;;;;;;36.67;13.67;;;;;;;1.28;100.00;101240.88;5073593;28;20603;-74
2021/12/16 07:12:03;;;;;;;33.77;13.87;;;;;;;1.37;100.00;101237.28;5073478;28;20202;-75
2021/12/16 07:14:37;;;;;;;21.63;10.83;;;;;;;1.39;100.00;101233.16;5073469;28;20202;-75
2021/12/16 07:17:07;;;;;;;37.93;15.57;;;;;;;1.24;100.00;101216.78;5073028;28;20665;-74
2021/12/16 07:19:35;;;;;;;24.33;12.67;;;;;;;1.17;100.00;101212.03;5073208;28;20215;-74
2021/12/16 07:22:03;;;;;;;30.80;13.77;;;;;;;1.15;100.00;101226.34;5072960;28;20195;-73
2021/12/16 07:24:30;;;;;;;31.17;15.27;;;;;;;1.18;100.00;101192.47;5072447;28;20191;-74
2021/12/16 07:26:56;;;;;;;23.90;10.27;;;;;;;1.37;100.00;101224.50;5073096;28;20231;-73
2021/12/16 07:29:24;;;;;;;38.87;16.37;;;;;;;1.71;100.00;101244.72;5072720;28;20252;-73
2021/12/16 07:31:51;;;;;;;44.13;18.77;;;;;;;1.63;100.00;101256.09;5072720;28;20237;-75
2021/12/16 07:34:20;;;;;;;41.77;17.17;;;;;;;1.73;100.00;101264.50;5072948;28;20202;-73
2021/12/16 07:36:48;;;;;;;38.77;15.80;;;;;;;1.85;100.00;101264.44;5072562;28;20235;-74
2021/12/16 07:39:18;;;;;;;41.17;16.73;;;;;;;2.03;100.00;101265.72;5072727;28;20213;-74
2021/12/16 07:41:47;;;;;;;24.33;11.97;;;;;;;1.94;100.00;101244.59;5072928;28;20209;-75
2021/12/16 07:44:16;;;;;;;37.30;14.43;;;;;;;1.74;100.00;101225.38;5072776;28;20281;-73
2021/12/16 07:46:46;;;;;;;87.63;39.23;;;;;;;2.00;100.00;101265.47;5072478;28;20222;-74
2021/12/16 07:49:16;;;;;;;43.83;17.90;;;;;;;2.00;100.00;101278.25;5072726;28;20194;-73
2021/12/16 07:51:44;;;;;;;40.00;17.40;;;;;;;2.12;100.00;101276.53;5072311;28;20694;-76
2021/12/16 07:54:13;;;;;;;38.50;17.70;;;;;;;2.16;100.00;101270.84;5072562;28;20221;-75
2021/12/16 07:56:41;;;;;;;30.97;14.10;;;;;;;2.21;100.00;101272.03;5071848;28;20202;-73
2021/12/16 07:59:09;;;;;;;49.70;19.10;;;;;;;2.32;100.00;101260.84;5072202;28;20619;-73
2021/12/16 08:01:36;;;;;;;42.23;14.87;;;;;;;2.49;100.00;101265.44;5072170;28;20684;-74
2021/12/16 08:04:04;;;;;;;29.90;14.57;;;;;;;2.69;100.00;101276.94;5072487;28;20195;-74
2021/12/16 08:06:33;;;;;;;34.00;15.80;;;;;;;2.86;100.00;101272.91;5072436;28;20226;-75
2021/12/16 08:09:08;;;;;;;41.37;17.70;;;;;;;2.96;100.00;101271.03;5072394;28;20202;-74
2021/12/16 08:11:38;;;;;;;45.87;19.33;;;;;;;2.93;100.00;101278.53;5072141;28;20217;-73
2021/12/16 08:14:06;;;;;;;46.33;18.90;;;;;;;2.89;100.00;101268.03;5071728;28;20210;-75
2021/12/16 08:16:34;;;;;;;48.77;20.83;;;;;;;3.05;100.00;101269.88;5072347;28;20218;-74
2021/12/16 08:19:01;;;;;;;42.33;16.97;;;;;;;3.05;100.00;101275.88;5071990;28;20244;-74
2021/12/16 08:21:29;;;;;;;36.53;17.67;;;;;;;3.11;100.00;101281.38;5072171;28;20198;-74
2021/12/16 08:23:56;;;;;;;41.17;19.60;;;;;;;2.85;100.00;101281.41;5072285;28;20195;-74
2021/12/16 08:26:25;;;;;;;42.80;17.20;;;;;;;2.94;100.00;101287.09;5071218;28;20230;-73
2021/12/16 08:28:52;;;;;;;34.63;17.80;;;;;;;2.92;100.00;101268.22;5072133;28;20205;-74
2021/12/16 08:31:19;;;;;;;31.80;13.90;;;;;;;3.07;100.00;101274.28;5072124;28;20198;-72
2021/12/16 08:33:46;;;;;;;50.47;20.87;;;;;;;3.08;100.00;101276.06;5072592;28;20634;-73
2021/12/16 08:36:15;;;;;;;39.27;15.50;;;;;;;2.89;100.00;101268.03;5071455;28;20230;-73
2021/12/16 08:38:43;;;;;;;36.87;15.67;;;;;;;2.66;100.00;101263.06;5071829;28;20199;-72
2021/12/16 08:41:13;;;;;;;42.33;18.40;;;;;;;3.00;100.00;101261.88;5071890;28;20252;-74
2021/12/16 08:43:44;;;;;;;50.83;21.40;;;;;;;3.40;100.00;101271.28;5072535;28;20259;-73
2021/12/16 08:46:13;;;;;;;34.70;15.17;;;;;;;3.44;100.00;101267.25;5071872;28;20223;-74
2021/12/16 08:48:41;;;;;;;39.23;17.23;;;;;;;3.62;100.00;101270.06;5071564;28;20772;-74
2021/12/16 08:51:09;;;;;;;33.77;14.90;;;;;;;3.69;100.00;101269.63;5071809;28;20579;-73
2021/12/16 08:53:36;;;;;;;37.70;16.20;;;;;;;3.88;100.00;101275.09;5071622;28;20252;-74
2021/12/16 08:56:06;;;;;;;33.53;15.97;;;;;;;3.96;100.00;101271.31;5070963;28;20620;-75
2021/12/16 08:58:33;;;;;;;40.13;18.03;;;;;;;4.20;100.00;101267.66;5071626;28;20195;-73
2021/12/16 09:01:07;;;;;;;39.37;16.83;;;;;;;4.16;100.00;101260.56;5071840;28;20190;-74
2021/12/16 09:03:34;;;;;;;32.57;14.93;;;;;;;4.14;100.00;101262.13;5071818;28;20199;-74
2021/12/16 09:06:01;;;;;;;37.90;15.93;;;;;;;3.98;100.00;101254.34;5071479;28;20230;-73
2021/12/16 09:08:28;;;;;;;35.00;15.97;;;;;;;4.02;100.00;101243.47;5071721;28;20639;-73
2021/12/16 09:10:55;;;;;;;44.13;16.60;;;;;;;3.97;100.00;101225.22;5071361;28;20221;-73
2021/12/16 09:13:22;;;;;;;30.63;16.20;;;;;;;4.28;100.00;101245.88;5071351;28;20195;-73
2021/12/16 09:15:51;;;;;;;32.43;15.50;;;;;;;4.32;100.00;101246.94;5071360;28;20202;-73
2021/12/16 09:18:23;;;;;;;50.73;18.37;;;;;;;4.57;100.00;101246.66;5071611;28;20194;-73
2021/12/16 09:20:51;;;;;;;33.47;13.70;;;;;;;4.52;100.00;101250.66;5071540;28;20214;-72
2021/12/16 09:23:18;;;;;;;39.33;16.27;;;;;;;4.41;100.00;101239.78;5071478;28;20206;-74
2021/12/16 09:25:46;;;;;;;38.33;16.57;;;;;;;4.44;100.00;101227.13;5070921;28;20226;-75
2021/12/16 09:28:15;;;;;;;26.20;13.53;;;;;;;4.41;100.00;101247.47;5075332;28;20193;-72
2021/12/16 09:30:42;;;;;;;42.60;18.97;;;;;;;4.30;100.00;101244.28;5075471;28;20585;-73
2021/12/16 09:33:14;;;;;;;34.90;16.37;;;;;;;4.54;100.00;101242.25;5075325;28;20194;-75
2021/12/16 09:35:46;;;;;;;33.73;16.73;;;;;;;4.29;100.00;101233.91;5075087;28;20232;-74
2021/12/16 09:38:14;;;;;;;32.63;15.33;;;;;;;4.32;100.00;101228.97;5075125;28;20197;-74
2021/12/16 09:40:48;;;;;;;37.97;16.40;;;;;;;4.52;100.00;101231.00;5074923;28;20202;-73
2021/12/16 09:43:16;;;;;;;40.60;16.93;;;;;;;4.57;100.00;101228.69;5074823;28;20198;-74
2021/12/16 09:45:43;;;;;;;41.63;19.13;;;;;;;4.82;100.00;101221.56;5075022;28;20191;-73
2021/12/16 09:48:10;;;;;;;36.00;17.57;;;;;;;4.71;100.00;101220.97;5074867;28;20210;-74
2021/12/16 09:50:37;;;;;;;28.53;14.07;;;;;;;4.71;100.00;101207.25;5074709;28;20199;-73
2021/12/16 09:53:06;;;;;;;39.13;18.13;;;;;;;4.59;100.00;101216.84;5074937;28;20213;-74
2021/12/16 09:55:34;;;;;;;31.20;14.40;;;;;;;4.60;100.00;101204.09;5074059;28;20250;-72
2021/12/16 09:58:01;;;;;;;31.67;14.67;;;;;;;4.71;100.00;101199.56;5074825;28;20195;-73
2021/12/16 10:00:30;;;;;;;43.60;18.33;;;;;;;4.92;100.00;101200.75;5074716;28;20194;-74
2021/12/16 10:02:58;;;;;;;60.07;20.53;;;;;;;5.10;100.00;101199.16;5074830;28;20199;-73
2021/12/16 10:05:25;;;;;;;33.73;13.13;;;;;;;4.87;100.00;101192.78;5074300;28;20198;-72
2021/12/16 10:07:53;;;;;;;42.57;16.90;;;;;;;4.97;100.00;101201.88;5074236;28;20723;-73
2021/12/16 10:10:25;;;;;;;27.73;12.73;;;;;;;4.90;100.00;101204.91;5074329;28;20673;-74
2021/12/16 10:12:54;;;;;;;17.37;9.23;;;;;;;4.63;100.00;101199.13;5074408;28;20665;-74
2021/12/16 10:18:11;;;;;;;24.27;11.70;;;;;;;4.90;100.00;101207.47;5074319;28;20244;-73
2021/12/16 10:20:41;;;;;;;31.37;14.90;;;;;;;4.71;100.00;101212.41;5074465;28;20223;-72
2021/12/16 10:23:11;;;;;;;23.20;10.97;;;;;;;4.82;100.00;101203.59;5074486;28;20623;-72
2021/12/16 10:25:43;;;;;;;35.87;14.43;;;;;;;4.76;100.00;101190.41;5073178;28;20684;-74
2021/12/16 10:28:13;;;;;;;29.50;13.87;;;;;;;4.99;100.00;101200.28;5073974;28;20309;-74
2021/12/16 10:30:50;;;;;;;23.67;11.30;;;;;;;4.83;100.00;101206.25;5074244;28;20191;-74
2021/12/16 10:33:31;;;;;;;20.17;9.60;;;;;;;4.85;100.00;101189.22;5073879;28;20206;-76
2021/12/16 10:36:02;;;;;;;24.37;11.83;;;;;;;4.68;100.00;101172.00;5073705;28;20229;-71
2021/12/16 10:38:29;;;;;;;26.97;14.23;;;;;;;4.87;100.00;101194.47;5073158;28;20195;-70
2021/12/16 10:40:57;;;;;;;29.13;13.27;;;;;;;5.28;100.00;101192.44;5074073;28;20202;-72
2021/12/16 10:43:30;;;;;;;29.77;13.27;;;;;;;5.27;100.00;101200.97;5074750;28;20191;-72
2021/12/16 10:46:01;;;;;;;20.30;9.67;;;;;;;5.31;100.00;101195.22;5073921;28;20210;-71
2021/12/16 10:48:31;;;;;;;28.03;13.00;;;;;;;5.42;100.00;101191.50;5073930;28;20199;-70
2021/12/16 10:51:08;;;;;;;19.17;10.93;;;;;;;5.48;100.00;101181.56;5073519;28;20198;-71
2021/12/16 10:54:09;;;;;;;25.60;12.63;;;;;;;5.17;100.00;101175.59;5073453;28;20669;-70
2021/12/16 10:56:45;;;;;;;27.97;13.37;;;;;;;5.27;100.00;101165.00;5072786;28;20203;-69
2021/12/16 10:59:15;;;;;;;32.07;13.87;;;;;;;5.32;100.00;101173.81;5073385;28;20200;-70
2021/12/16 11:01:49;;;;;;;24.73;11.47;;;;;;;5.38;100.00;101171.59;5073275;28;20199;-71
2021/12/16 11:04:21;;;;;;;37.43;13.60;;;;;;;5.27;100.00;101165.00;5073529;28;20217;-72
2021/12/16 11:06:53;;;;;;;28.03;14.27;;;;;;;5.39;100.00;101163.03;5073540;28;20676;-73
2021/12/16 11:09:36;;;;;;;24.23;11.17;;;;;;;4.95;100.00;101118.69;5073034;28;20256;-74
2021/12/16 11:12:15;;;;;;;16.17;8.60;;;;;;;5.40;100.00;101145.94;5073410;28;20268;-72
2021/12/16 11:14:46;;;;;;;18.80;11.40;;;;;;;5.31;100.00;101158.31;5073147;28;20194;-72
2021/12/16 11:17:16;;;;;;;28.80;13.30;;;;;;;5.12;100.00;101153.00;5072900;28;20596;-73
2021/12/16 11:19:46;;;;;;;29.67;13.43;;;;;;;5.13;100.00;101153.09;5073003;28;20721;-72
2021/12/16 11:22:16;;;;;;;33.80;15.77;;;;;;;5.36;100.00;101138.84;5073290;28;20195;-74
2021/12/16 11:24:43;;;;;;;35.43;15.60;;;;;;;5.42;100.00;101147.78;5072417;28;20202;-72
2021/12/16 11:27:27;;;;;;;28.27;14.07;;;;;;;5.59;100.00;101145.22;5072980;28;20222;-72
2021/12/16 11:29:56;;;;;;;30.30;14.80;;;;;;;5.60;100.00;101145.28;5072755;28;20738;-73
2021/12/16 11:32:42;;;;;;;32.77;14.37;;;;;;;5.62;100.00;101135.06;5072969;28;20187;-74
2021/12/16 11:35:42;;;;;;;39.10;16.23;;;;;;;5.53;100.00;101144.91;5072473;28;20194;-72
2021/12/16 11:38:26;;;;;;;34.30;13.90;;;;;;;5.58;100.00;101139.19;5010839;28;20196;-74
2021/12/16 11:40:58;;;;;;;27.93;14.40;;;;;;;5.33;100.00;101131.88;5067356;28;20198;-72
2021/12/16 11:43:36;;;;;;;40.20;18.87;;;;;;;5.28;100.00;101133.31;5072816;28;20260;-72
2021/12/16 11:46:07;;;;;;;22.70;9.50;;;;;;;5.42;100.00;101134.91;5072840;28;20607;-72
2021/12/16 11:48:37;;;;;;;40.57;16.97;;;;;;;5.17;100.00;101139.59;5071422;28;20773;-72
2021/12/16 11:51:08;;;;;;;52.57;21.47;;;;;;;5.29;100.00;101124.81;5072692;28;20204;-73
2021/12/16 11:53:37;;;;;;;35.07;15.03;;;;;;;5.05;100.00;101066.97;5072543;28;20198;-74
2021/12/16 11:56:05;;;;;;;33.07;16.10;;;;;;;5.41;100.00;101120.31;5071827;28;20248;-73
2021/12/16 11:58:33;;;;;;;31.87;15.30;;;;;;;5.28;100.00;101130.72;5072486;28;20195;-73
2021/12/16 12:01:12;;;;;;;27.13;13.73;;;;;;;5.41;100.00;101133.16;5072254;28;20657;-74
2021/12/16 12:03:39;;;;;;;22.83;13.10;;;;;;;5.28;100.00;101125.59;5072343;28;20324;-74
2021/12/16 12:06:06;;;;;;;40.70;19.47;;;;;;;5.25;100.00;101117.72;5072464;28;20244;-71
2021/12/16 12:08:32;;;;;;;37.80;15.17;;;;;;;5.31;100.00;101112.94;5072257;28;20222;-75
2021/12/16 12:11:05;;;;;;;32.47;14.40;;;;;;;5.10;100.00;101122.03;5072001;28;20696;-73
2021/12/16 12:13:38;;;;;;;28.67;13.50;;;;;;;5.28;100.00;101107.59;5072344;28;20198;-72
2021/12/16 12:16:07;;;;;;;34.33;11.60;;;;;;;5.33;100.00;101113.88;5072256;28;20199;-72
2021/12/16 12:18:41;;;;;;;36.30;15.77;;;;;;;5.29;100.00;101113.63;5072174;28;20199;-75
2021/12/16 12:21:30;;;;;;;32.93;13.93;;;;;;;5.34;100.00;101104.47;5072140;28;20214;-72
2021/12/16 12:23:59;;;;;;;35.20;15.80;;;;;;;5.39;100.00;101111.63;5072220;28;20199;-74
2021/12/16 12:26:28;;;;;;;23.90;13.57;;;;;;;5.27;100.00;101084.41;5070899;28;20187;-74
2021/12/16 12:28:59;;;;;;;30.13;13.63;;;;;;;5.26;100.00;101109.22;5071817;28;20195;-72
2021/12/16 12:31:30;;;;;;;26.73;13.93;;;;;;;5.40;100.00;101103.09;5071739;28;20198;-72
2021/12/16 12:33:57;;;;;;;35.73;16.47;;;;;;;5.46;100.00;101107.66;5071977;28;20199;-73
2021/12/16 12:36:25;;;;;;;39.23;17.17;;;;;;;5.26;100.00;101073.22;5071587;28;20251;-74
2021/12/16 12:38:53;;;;;;;30.33;13.97;;;;;;;5.47;100.00;101115.47;5072032;28;20206;-72
2021/12/16 12:41:21;;;;;;;23.23;12.13;;;;;;;5.39;100.00;101106.47;5071701;28;20202;-73
2021/12/16 12:43:50;;;;;;;31.93;15.37;;;;;;;5.58;100.00;101116.03;5071932;28;20211;-72
2021/12/16 12:46:19;;;;;;;32.87;16.03;;;;;;;5.41;100.00;101068.00;5072008;28;20199;-72
2021/12/16 12:48:47;;;;;;;39.03;16.87;;;;;;;5.70;100.00;101108.06;5071846;28;20249;-73
2021/12/16 12:51:14;;;;;;;37.67;17.70;;;;;;;5.98;100.00;101106.09;5071970;28;20590;-73
2021/12/16 12:53:48;;;;;;;39.60;15.60;;;;;;;5.65;100.00;101050.31;5071830;28;20191;-73
2021/12/16 12:56:18;;;;;;;31.97;14.60;;;;;;;5.87;100.00;101113.28;5070808;28;20686;-73
2021/12/16 12:58:51;;;;;;;30.07;14.67;;;;;;;5.96;100.00;101108.56;5071775;28;20585;-74
2021/12/16 13:01:34;;;;;;;30.50;16.63;;;;;;;6.21;100.00;101123.53;5075004;28;20198;-74
2021/12/16 13:04:08;;;;;;;31.50;16.23;;;;;;;6.18;100.00;101125.97;5075567;28;20708;-73
2021/12/16 13:06:50;;;;;;;42.13;19.23;;;;;;;6.18;100.00;101125.97;5075824;28;20191;-73
2021/12/16 13:09:31;;;;;;;32.43;15.97;;;;;;;6.22;100.00;101122.72;5075939;28;20194;-73
2021/12/16 13:11:59;;;;;;;42.33;19.30;;;;;;;6.27;100.00;101125.53;5075850;28;20248;-72
2021/12/16 13:14:43;;;;;;;48.17;20.33;;;;;;;6.23;100.00;101137.38;5075617;28;20194;-73
2021/12/16 13:23:19;;;;;;;44.20;16.67;;;;;;;6.15;100.00;101130.97;5075757;28;20202;-72
2021/12/16 13:23:29;;;;;;;35.70;16.73;;;;;;;6.10;100.00;101127.28;5075104;28;20260;-72
2021/12/16 13:26:24;;;;;;;39.27;16.67;;;;;;;6.26;100.00;101131.50;5074542;28;20209;-74